createdAt,value
2022-10-18T00:02:13.692Z,96121.69
2022-10-18T00:04:40.230Z,96121.03
2022-10-18T00:07:06.744Z,96119.91
2022-10-18T00:09:33.424Z,96123.47
2022-10-18T00:12:00.063Z,96127.03
2022-10-18T00:14:26.534Z,96130.91
2022-10-18T00:16:53.006Z,96130.38
2022-10-18T00:19:19.485Z,96130.38
2022-10-18T00:21:45.990Z,96134.28
2022-10-18T00:24:12.818Z,96126.47
2022-10-18T00:26:39.302Z,96131.66
2022-10-18T00:29:06.060Z,96120.00
2022-10-18T00:31:36.585Z,96122.75
2022-10-18T00:34:21.227Z,96125.97
2022-10-18T00:36:48.183Z,96131.13
2022-10-18T00:39:19.524Z,96133.78
2022-10-18T00:41:46.215Z,96130.81
2022-10-18T00:44:12.632Z,96130.56
2022-10-18T00:46:45.390Z,96133.22
2022-10-18T00:49:19.512Z,96119.19
2022-10-18T00:51:53.689Z,96128.41
2022-10-18T00:54:21.122Z,96131.84
2022-10-18T00:56:47.632Z,96130.72
2022-10-18T00:59:15.499Z,96126.53
2022-10-18T01:01:42.183Z,96132.63
2022-10-18T01:04:09.042Z,96127.78
2022-10-18T01:06:45.464Z,96138.09
2022-10-18T01:09:32.995Z,96138.34
2022-10-18T01:12:10.047Z,96139.63
2022-10-18T01:14:58.701Z,96140.09
2022-10-18T01:17:43.107Z,96147.56
2022-10-18T01:20:30.821Z,96136.06
2022-10-18T01:23:08.512Z,96138.84
2022-10-18T01:26:03.950Z,96131.84
2022-10-18T01:29:02.778Z,96132.56
2022-10-18T01:31:39.740Z,96139.88
2022-10-18T01:34:08.448Z,96139.09
2022-10-18T01:36:40.723Z,96142.34
2022-10-18T01:39:10.033Z,96134.34
2022-10-18T01:41:39.297Z,96137.84
2022-10-18T01:44:08.509Z,96133.91
2022-10-18T01:46:36.177Z,96132.53
2022-10-18T01:49:03.110Z,96133.75
2022-10-18T01:51:31.096Z,96143.31
2022-10-18T01:53:58.047Z,96145.06
2022-10-18T01:56:49.171Z,96140.78
2022-10-18T01:59:24.802Z,96134.75
2022-10-18T02:02:06.634Z,96127.31
2022-10-18T02:04:33.063Z,96139.53
2022-10-18T02:07:08.900Z,96132.78
2022-10-18T02:09:43.050Z,96124.84
2022-10-18T02:12:12.023Z,96132.38
2022-10-18T02:14:39.589Z,96134.50
2022-10-18T02:17:08.676Z,96132.41
2022-10-18T02:19:38.860Z,96124.31
2022-10-18T02:22:11.192Z,96140.19
2022-10-18T02:24:45.088Z,96129.28
2022-10-18T02:27:11.654Z,96132.31
2022-10-18T02:29:39.033Z,96131.81
2022-10-18T02:32:12.329Z,96127.75
2022-10-18T02:34:43.181Z,96123.22
2022-10-18T02:37:11.224Z,96129.63
2022-10-18T02:39:40.973Z,96126.28
2022-10-18T02:42:11.618Z,96128.00
2022-10-18T02:44:38.725Z,96128.13
2022-10-18T02:47:10.646Z,96119.91
2022-10-18T02:49:37.127Z,96119.28
2022-10-18T02:52:03.854Z,96125.13
2022-10-18T02:54:30.383Z,96123.13
2022-10-18T02:56:56.914Z,96118.03
2022-10-18T02:59:23.405Z,96117.69
2022-10-18T03:01:50.068Z,96128.25
2022-10-18T03:04:16.579Z,96123.25
2022-10-18T03:06:43.110Z,96133.41
2022-10-18T03:09:09.920Z,96138.31
2022-10-18T03:11:36.457Z,96137.81
2022-10-18T03:14:03.078Z,96142.31
2022-10-18T03:16:29.643Z,96152.50
2022-10-18T03:18:58.898Z,96143.72
2022-10-18T03:21:25.443Z,96142.00
2022-10-18T03:23:51.983Z,96155.13
2022-10-18T03:26:18.456Z,96158.13
2022-10-18T03:28:45.008Z,96160.47
2022-10-18T03:31:11.593Z,96157.75
2022-10-18T03:33:38.070Z,96165.03
2022-10-18T03:36:05.048Z,96153.44
2022-10-18T03:38:31.535Z,96153.25
2022-10-18T03:40:58.027Z,96160.44
2022-10-18T03:43:24.531Z,96160.28
2022-10-18T03:45:51.460Z,96168.75
2022-10-18T03:48:18.353Z,96167.69
2022-10-18T03:50:44.887Z,96172.78
2022-10-18T03:53:11.799Z,96172.34
2022-10-18T03:55:38.740Z,96165.22
2022-10-18T03:58:05.273Z,96167.66
2022-10-18T04:00:31.886Z,96178.50
2022-10-18T04:02:58.346Z,96187.53
2022-10-18T04:05:25.078Z,96181.09
2022-10-18T04:07:51.559Z,96188.94
2022-10-18T04:10:18.163Z,96189.59
2022-10-18T04:12:44.689Z,96192.19
2022-10-18T04:15:11.324Z,96202.97
2022-10-18T04:17:38.136Z,96195.06
2022-10-18T04:20:05.424Z,96204.09
2022-10-18T04:22:31.938Z,96199.13
2022-10-18T04:24:58.418Z,96194.88
2022-10-18T04:27:24.923Z,96205.72
2022-10-18T04:29:51.383Z,96193.56
2022-10-18T04:32:17.901Z,96187.06
2022-10-18T04:34:44.389Z,96191.28
2022-10-18T04:37:10.937Z,96192.16
2022-10-18T04:39:37.404Z,96188.38
2022-10-18T04:42:04.133Z,96180.69
2022-10-18T04:44:30.618Z,96185.81
2022-10-18T04:46:57.093Z,96183.59
2022-10-18T04:49:29.560Z,96183.81
2022-10-18T04:51:56.014Z,96186.38
2022-10-18T04:54:23.975Z,96182.56
2022-10-18T04:56:53.004Z,96189.09
2022-10-18T04:59:19.616Z,96188.72
2022-10-18T05:01:46.189Z,96200.75
2022-10-18T05:04:12.863Z,96199.03
2022-10-18T05:06:39.416Z,96203.53
2022-10-18T05:09:06.032Z,96204.81
2022-10-18T05:11:32.563Z,96188.19
2022-10-18T05:13:59.018Z,96193.78
2022-10-18T05:16:25.663Z,96192.06
2022-10-18T05:18:52.145Z,96192.59
2022-10-18T05:21:18.655Z,96188.56
2022-10-18T05:23:45.173Z,96192.44
2022-10-18T05:26:11.715Z,96200.13
2022-10-18T05:28:40.160Z,96197.09
2022-10-18T05:31:08.580Z,96183.19
2022-10-18T05:33:35.658Z,96201.16
2022-10-18T05:36:02.170Z,96199.41
2022-10-18T05:38:28.823Z,96198.25
2022-10-18T05:40:55.364Z,96195.91
2022-10-18T05:43:22.062Z,96190.59
2022-10-18T05:45:51.482Z,96194.56
2022-10-18T05:48:18.278Z,96195.94
2022-10-18T05:50:45.127Z,96201.63
2022-10-18T05:53:31.821Z,96192.94
2022-10-18T05:56:01.848Z,96199.28
2022-10-18T05:58:28.376Z,96192.56
2022-10-18T06:00:54.900Z,96195.81
2022-10-18T06:03:23.165Z,96196.28
2022-10-18T06:05:49.895Z,96191.88
2022-10-18T06:08:16.434Z,96185.03
2022-10-18T06:10:44.797Z,96189.19
2022-10-18T06:13:11.616Z,96194.25
2022-10-18T06:15:38.075Z,96197.19
2022-10-18T06:18:04.595Z,96187.75
2022-10-18T06:20:33.720Z,96182.41
2022-10-18T06:23:00.247Z,96194.97
2022-10-18T06:25:26.823Z,96192.75
2022-10-18T06:27:53.341Z,96200.06
2022-10-18T06:30:19.927Z,96203.69
2022-10-18T06:32:46.489Z,96200.31
2022-10-18T06:35:13.041Z,96205.81
2022-10-18T06:37:39.803Z,96200.09
2022-10-18T06:40:07.066Z,96212.31
2022-10-18T06:42:33.881Z,96216.72
2022-10-18T06:45:00.678Z,96215.56
2022-10-18T06:47:27.161Z,96222.66
2022-10-18T06:49:53.608Z,96227.13
2022-10-18T06:52:20.465Z,96222.28
2022-10-18T06:54:47.009Z,96219.66
2022-10-18T06:57:13.654Z,96216.00
2022-10-18T06:59:40.111Z,96216.81
2022-10-18T07:02:07.057Z,96221.19
2022-10-18T07:04:33.566Z,96229.31
2022-10-18T07:07:00.201Z,96227.13
2022-10-18T07:09:26.689Z,96228.25
2022-10-18T07:11:53.146Z,96229.88
2022-10-18T07:14:19.885Z,96223.25
2022-10-18T07:16:46.333Z,96218.59
2022-10-18T07:19:12.809Z,96222.34
2022-10-18T07:21:39.380Z,96223.31
2022-10-18T07:24:06.465Z,96231.91
2022-10-18T07:26:34.955Z,96226.09
2022-10-18T07:29:09.934Z,96236.31
2022-10-18T07:31:37.829Z,96233.34
2022-10-18T07:34:05.528Z,96232.94
2022-10-18T07:36:32.130Z,96229.75
2022-10-18T07:38:58.652Z,96226.28
2022-10-18T07:41:25.763Z,96234.84
2022-10-18T07:43:52.920Z,96234.50
2022-10-18T07:46:20.650Z,96239.88
2022-10-18T07:48:47.660Z,96225.09
2022-10-18T07:51:14.929Z,96228.00
2022-10-18T07:53:41.519Z,96239.22
2022-10-18T07:56:16.943Z,96236.53
2022-10-18T07:58:44.807Z,96232.44
2022-10-18T08:01:11.857Z,96229.09
2022-10-18T08:03:38.653Z,96227.31
2022-10-18T08:06:07.090Z,96225.03
2022-10-18T08:08:33.571Z,96227.53
2022-10-18T08:11:06.494Z,96231.94
2022-10-18T08:13:32.987Z,96235.56
2022-10-18T08:16:01.596Z,96236.97
2022-10-18T08:18:28.519Z,96236.25
2022-10-18T08:20:55.054Z,96229.28
2022-10-18T08:23:21.637Z,96239.81
2022-10-18T08:25:48.249Z,96238.72
2022-10-18T08:28:15.214Z,96238.66
2022-10-18T08:30:41.788Z,96241.25
2022-10-18T08:33:08.377Z,96231.22
2022-10-18T08:35:35.297Z,96237.44
2022-10-18T08:38:01.908Z,96236.66
2022-10-18T08:40:28.655Z,96241.25
2022-10-18T08:42:58.909Z,96241.06
2022-10-18T08:45:41.069Z,96234.53
2022-10-18T08:48:19.546Z,96232.47
2022-10-18T08:50:46.558Z,96230.72
2022-10-18T08:53:34.057Z,96226.97
2022-10-18T08:56:05.436Z,96222.81
2022-10-18T08:58:32.897Z,96228.84
2022-10-18T09:01:23.646Z,96233.22
2022-10-18T09:04:13.328Z,96227.97
2022-10-18T09:06:49.151Z,96227.84
2022-10-18T09:09:21.695Z,96226.72
2022-10-18T09:11:57.978Z,96224.63
2022-10-18T09:14:49.331Z,96224.63
2022-10-18T09:17:44.238Z,96225.09
2022-10-18T09:20:25.626Z,96223.22
2022-10-18T09:22:59.340Z,96224.91
2022-10-18T09:25:32.850Z,96218.34
2022-10-18T09:28:15.993Z,96217.66
2022-10-18T09:30:48.784Z,96213.81
2022-10-18T09:33:35.643Z,96207.03
2022-10-18T09:36:05.371Z,96210.53
2022-10-18T09:38:44.517Z,96208.31
2022-10-18T09:41:20.305Z,96210.78
2022-10-18T09:43:50.232Z,96206.56
2022-10-18T09:46:19.311Z,96200.63
2022-10-18T09:48:51.058Z,96196.31
2022-10-18T09:51:20.805Z,96197.66
2022-10-18T09:54:13.654Z,96196.19
2022-10-18T09:56:49.023Z,96190.81
2022-10-18T09:59:43.225Z,96202.06
2022-10-18T10:02:14.343Z,96202.44
2022-10-18T10:04:40.999Z,96191.75
2022-10-18T10:07:13.329Z,96193.69
2022-10-18T10:09:58.064Z,96185.22
2022-10-18T10:12:34.520Z,96190.75
2022-10-18T10:15:21.908Z,96190.31
2022-10-18T10:17:57.576Z,96194.13
2022-10-18T10:20:48.568Z,96188.13
2022-10-18T10:23:31.092Z,96186.69
2022-10-18T10:26:22.202Z,96194.19
2022-10-18T10:28:49.378Z,96187.09
2022-10-18T10:31:30.498Z,96190.09
2022-10-18T10:34:05.916Z,96188.47
2022-10-18T10:36:33.200Z,96190.72
2022-10-18T10:39:09.516Z,96185.69
2022-10-18T10:41:36.117Z,96188.94
2022-10-18T10:44:04.295Z,96180.09
2022-10-18T10:46:35.405Z,96178.50
2022-10-18T10:49:34.874Z,96175.25
2022-10-18T10:52:08.696Z,96176.66
2022-10-18T10:54:50.306Z,96177.19
2022-10-18T10:57:28.312Z,96176.38
2022-10-18T10:59:56.579Z,96174.78
2022-10-18T11:02:27.677Z,96172.06
2022-10-18T11:04:55.711Z,96159.94
2022-10-18T11:07:35.818Z,96163.44
2022-10-18T11:10:11.353Z,96152.41
2022-10-18T11:12:46.819Z,96154.25
2022-10-18T11:15:23.646Z,96150.53
2022-10-18T11:18:18.976Z,96146.19
2022-10-18T11:21:00.385Z,96144.03
2022-10-18T11:23:34.426Z,96142.44
2022-10-18T11:26:13.162Z,96144.59
2022-10-18T11:28:58.522Z,96141.09
2022-10-18T11:31:35.408Z,96131.38
2022-10-18T11:34:26.819Z,96127.59
2022-10-18T11:37:26.728Z,96131.66
2022-10-18T11:40:04.640Z,96123.28
2022-10-18T11:42:42.057Z,96123.84
2022-10-18T11:45:35.408Z,96122.47
2022-10-18T11:48:18.603Z,96111.19
2022-10-18T11:50:55.043Z,96113.88
2022-10-18T11:53:41.776Z,96106.06
2022-10-18T11:56:20.676Z,96107.13
2022-10-18T11:59:11.590Z,96101.44
2022-10-18T12:01:46.520Z,96087.38
2022-10-18T12:04:19.230Z,96088.41
2022-10-18T12:06:47.936Z,96080.31
2022-10-18T12:09:34.847Z,96079.53
2022-10-18T12:12:06.414Z,96067.91
2022-10-18T12:14:38.230Z,96061.75
2022-10-18T12:19:59.009Z,96063.94
2022-10-18T12:22:35.143Z,96063.19
2022-10-18T12:25:02.084Z,96062.38
2022-10-18T12:27:39.713Z,96058.66
2022-10-18T12:30:14.856Z,96053.50
2022-10-18T12:32:56.297Z,96057.31
2022-10-18T12:35:32.065Z,96045.47
2022-10-18T12:38:17.348Z,96041.16
2022-10-18T12:40:46.874Z,96038.47
2022-10-18T12:43:24.834Z,96040.59
2022-10-18T12:45:56.736Z,96030.34
2022-10-18T12:48:38.540Z,96030.56
2022-10-18T12:51:13.753Z,96029.53
2022-10-18T12:53:40.902Z,96027.63
2022-10-18T12:56:29.398Z,96024.66
2022-10-18T12:59:14.436Z,96020.13
2022-10-18T13:01:53.159Z,96026.56
2022-10-18T13:04:28.889Z,96016.28
2022-10-18T13:06:58.287Z,96018.44
2022-10-18T13:09:28.357Z,96017.44
2022-10-18T13:12:10.254Z,96014.97
2022-10-18T13:15:25.311Z,96012.00
2022-10-18T13:18:17.470Z,96006.56
2022-10-18T13:20:50.129Z,96010.31
2022-10-18T13:23:30.736Z,96003.56
2022-10-18T13:26:37.065Z,95999.00
2022-10-18T13:29:21.501Z,96003.84
2022-10-18T13:31:58.290Z,96001.22
2022-10-18T13:34:26.190Z,95996.13
2022-10-18T13:37:15.896Z,96002.81
2022-10-18T13:39:43.294Z,96001.69
2022-10-18T13:42:16.065Z,96000.06
2022-10-18T13:44:43.693Z,95996.25
2022-10-18T13:47:30.555Z,96002.69
2022-10-18T13:50:32.398Z,96000.25
2022-10-18T13:53:12.830Z,95987.59
2022-10-18T13:55:52.041Z,95985.91
2022-10-18T13:58:49.034Z,95992.91
2022-10-18T14:01:50.655Z,95998.78
2022-10-18T14:04:38.779Z,95993.97
2022-10-18T14:07:06.172Z,95989.06
2022-10-18T14:09:52.659Z,95990.19
2022-10-18T14:12:38.244Z,95988.81
2022-10-18T14:15:14.854Z,95997.19
2022-10-18T14:17:47.953Z,95984.25
2022-10-18T14:20:29.914Z,95995.59
2022-10-18T14:23:06.852Z,95987.22
2022-10-18T14:25:35.673Z,95995.16
2022-10-18T14:28:31.529Z,95990.13
2022-10-18T14:31:04.977Z,95990.91
2022-10-18T14:33:37.449Z,95978.53
2022-10-18T14:36:23.997Z,95976.88
2022-10-18T14:38:55.433Z,95979.59
2022-10-18T14:41:29.297Z,95985.53
2022-10-18T14:44:14.134Z,95983.34
2022-10-18T14:46:53.939Z,95978.19
2022-10-18T14:49:23.258Z,95973.28
2022-10-18T14:51:54.504Z,95979.97
2022-10-18T14:54:30.804Z,95972.13
2022-10-18T14:57:00.849Z,95963.78
2022-10-18T14:59:49.596Z,95967.38
2022-10-18T15:02:19.759Z,95969.53
2022-10-18T15:04:47.508Z,95956.84
2022-10-18T15:07:16.544Z,95947.72
2022-10-18T15:09:43.877Z,95950.63
2022-10-18T15:12:14.437Z,95946.81
2022-10-18T15:14:42.116Z,95954.66
2022-10-18T15:17:16.132Z,95949.31
2022-10-18T15:19:55.188Z,95959.59
2022-10-18T15:22:32.982Z,95947.47
2022-10-18T15:25:21.236Z,95952.63
2022-10-18T15:27:49.940Z,95950.47
2022-10-18T15:30:24.050Z,95955.56
2022-10-18T15:32:56.323Z,95944.00
2022-10-18T15:35:34.225Z,95953.97
2022-10-18T15:38:21.342Z,95951.56
2022-10-18T15:40:48.244Z,95956.19
2022-10-18T15:43:23.966Z,95956.47
2022-10-18T15:45:57.707Z,95947.28
2022-10-18T15:48:35.868Z,95944.31
2022-10-18T15:51:07.847Z,95942.19
2022-10-18T15:53:53.957Z,95930.31
2022-10-18T15:56:39.516Z,95931.59
2022-10-18T15:59:24.451Z,95925.69
2022-10-18T16:01:51.285Z,95914.06
2022-10-18T16:04:25.394Z,95911.38
2022-10-18T16:06:52.136Z,95909.72
2022-10-18T16:09:24.022Z,95909.06
2022-10-18T16:11:55.788Z,95908.69
2022-10-18T16:14:24.391Z,95913.34
2022-10-18T16:16:57.158Z,95913.41
2022-10-18T16:19:23.617Z,95911.03
2022-10-18T16:21:51.500Z,95923.19
2022-10-18T16:24:18.734Z,95915.13
2022-10-18T16:26:46.008Z,95916.50
2022-10-18T16:29:17.556Z,95906.53
2022-10-18T16:31:44.270Z,95913.53
2022-10-18T16:34:10.813Z,95911.38
2022-10-18T16:36:37.957Z,95914.34
2022-10-18T16:39:06.630Z,95919.16
2022-10-18T16:41:33.762Z,95912.13
2022-10-18T16:44:00.200Z,95917.78
2022-10-18T16:46:29.296Z,95923.38
2022-10-18T16:48:56.082Z,95926.03
2022-10-18T16:51:22.815Z,95929.34
2022-10-18T16:53:49.639Z,95928.13
2022-10-18T16:56:21.745Z,95928.34
2022-10-18T16:58:49.067Z,95934.50
2022-10-18T17:01:18.791Z,95928.09
2022-10-18T17:03:45.492Z,95935.50
2022-10-18T17:06:20.265Z,95939.66
2022-10-18T17:08:48.677Z,95932.25
2022-10-18T17:11:17.121Z,95936.00
2022-10-18T17:13:44.084Z,95938.03
2022-10-18T17:16:26.904Z,95936.28
2022-10-18T17:18:53.386Z,95939.72
2022-10-18T17:21:23.105Z,95942.63
2022-10-18T17:23:49.759Z,95948.00
2022-10-18T17:26:30.029Z,95950.47
2022-10-18T17:28:59.616Z,95949.03
2022-10-18T17:31:26.375Z,95951.53
2022-10-18T17:33:55.429Z,95955.31
2022-10-18T17:36:22.229Z,95956.97
2022-10-18T17:38:55.412Z,95954.22
2022-10-18T17:41:22.385Z,95964.88
2022-10-18T17:43:52.099Z,95968.81
2022-10-18T17:46:18.879Z,95970.56
2022-10-18T17:48:45.643Z,95971.63
2022-10-18T17:51:17.387Z,95968.94
2022-10-18T17:53:44.398Z,95969.91
2022-10-18T17:56:11.866Z,95971.97
2022-10-18T17:58:38.758Z,95979.81
2022-10-18T18:01:13.977Z,95984.75
2022-10-18T18:03:41.172Z,95976.78
2022-10-18T18:06:13.635Z,95984.47
2022-10-18T18:08:40.068Z,95986.06
2022-10-18T18:11:06.556Z,95985.81
2022-10-18T18:13:33.081Z,95986.56
2022-10-18T18:16:10.848Z,95989.84
2022-10-18T18:18:37.564Z,95989.41
2022-10-18T18:21:04.028Z,95999.06
2022-10-18T18:23:30.540Z,95990.50
2022-10-18T18:26:05.980Z,95991.72
2022-10-18T18:28:32.606Z,95984.41
2022-10-18T18:30:59.148Z,95996.81
2022-10-18T18:33:25.807Z,95993.59
2022-10-18T18:35:58.928Z,95997.53
2022-10-18T18:38:26.065Z,95996.16
2022-10-18T18:41:07.386Z,95989.78
2022-10-18T18:43:34.269Z,95995.53
2022-10-18T18:46:01.805Z,95992.25
2022-10-18T18:48:32.889Z,95985.03
2022-10-18T18:50:59.627Z,95994.47
2022-10-18T18:53:31.395Z,95995.16
2022-10-18T18:56:02.716Z,95996.53
2022-10-18T18:58:32.587Z,95999.81
2022-10-18T19:00:59.134Z,95994.16
2022-10-18T19:03:25.853Z,95987.63
2022-10-18T19:06:31.930Z,95989.09
2022-10-18T19:09:12.797Z,95997.19
2022-10-18T19:11:39.828Z,95983.06
2022-10-18T19:14:07.899Z,95988.97
2022-10-18T19:16:36.388Z,95998.69
2022-10-18T19:19:02.985Z,96004.72
2022-10-18T19:21:31.796Z,96002.75
2022-10-18T19:23:58.848Z,95993.66
2022-10-18T19:26:40.751Z,95994.97
2022-10-18T19:29:13.337Z,95998.22
2022-10-18T19:31:40.436Z,95983.00
2022-10-18T19:34:08.670Z,95988.53
2022-10-18T19:36:36.464Z,95989.59
2022-10-18T19:39:04.606Z,95990.22
2022-10-18T19:41:31.192Z,95987.09
2022-10-18T19:43:58.310Z,95993.34
2022-10-18T19:46:25.169Z,95983.59
2022-10-18T19:48:51.878Z,95985.53
2022-10-18T19:51:22.858Z,95992.44
2022-10-18T19:53:51.888Z,95983.91
2022-10-18T19:56:21.668Z,95993.44
2022-10-18T19:58:48.165Z,95986.78
2022-10-18T20:01:16.609Z,95998.16
2022-10-18T20:03:43.775Z,95987.53
2022-10-18T20:06:10.689Z,95993.94
2022-10-18T20:08:37.708Z,95996.78
2022-10-18T20:11:06.994Z,95999.22
2022-10-18T20:13:34.539Z,95988.69
2022-10-18T20:16:01.634Z,95988.88
2022-10-18T20:18:28.229Z,95985.69
2022-10-18T20:20:54.995Z,95987.22
2022-10-18T20:23:21.701Z,95980.94
2022-10-18T20:26:08.195Z,95988.63
2022-10-18T20:28:35.137Z,95993.16
2022-10-18T20:31:06.156Z,95990.50
2022-10-18T20:33:33.435Z,95996.31
2022-10-18T20:36:05.162Z,95995.50
2022-10-18T20:38:33.485Z,95988.13
2022-10-18T20:41:07.620Z,95990.81
2022-10-18T20:43:35.044Z,95998.50
2022-10-18T20:46:02.819Z,96004.47
2022-10-18T20:48:30.691Z,95986.69
2022-10-18T20:50:57.657Z,95998.16
2022-10-18T20:53:24.187Z,95988.63
2022-10-18T20:55:50.699Z,95994.22
2022-10-18T20:58:17.199Z,95988.88
2022-10-18T21:00:43.723Z,95992.19
2022-10-18T21:03:10.169Z,95990.06
2022-10-18T21:05:36.660Z,95987.00
2022-10-18T21:08:03.145Z,95987.00
2022-10-18T21:10:29.608Z,95991.34
2022-10-18T21:12:56.106Z,95994.50
2022-10-18T21:15:22.596Z,95981.63
2022-10-18T21:17:51.850Z,95979.44
2022-10-18T21:20:18.406Z,95980.41
2022-10-18T21:22:44.905Z,95981.75
2022-10-18T21:25:11.385Z,95982.44
2022-10-18T21:27:38.901Z,95977.22
2022-10-18T21:30:05.632Z,95976.22
2022-10-18T21:32:32.362Z,95982.88
2022-10-18T21:34:58.928Z,95975.44
2022-10-18T21:37:25.802Z,95980.19
2022-10-18T21:39:52.526Z,95975.88
2022-10-18T21:42:18.953Z,95979.59
2022-10-18T21:44:45.420Z,95970.91
2022-10-18T21:47:11.862Z,95965.47
2022-10-18T21:49:38.401Z,95967.69
2022-10-18T21:52:07.686Z,95964.31
2022-10-18T21:54:34.220Z,95968.41
2022-10-18T21:57:00.705Z,95964.81
2022-10-18T21:59:27.176Z,95965.53
2022-10-18T22:01:53.615Z,95951.63
2022-10-18T22:04:24.165Z,95953.72
2022-10-18T22:06:51.329Z,95951.63
2022-10-18T22:09:18.333Z,95948.44
2022-10-18T22:11:50.951Z,95949.97
2022-10-18T22:14:17.667Z,95952.63
2022-10-18T22:16:44.252Z,95952.16
2022-10-18T22:19:11.001Z,95945.16
2022-10-18T22:21:37.484Z,95955.91
2022-10-18T22:24:06.921Z,95950.94
2022-10-18T22:26:36.230Z,95943.31
2022-10-18T22:29:08.666Z,95947.13
2022-10-18T22:31:37.083Z,95947.19
2022-10-18T22:34:10.047Z,95942.19
2022-10-18T22:36:36.634Z,95941.63
2022-10-18T22:39:03.982Z,95937.69
2022-10-18T22:41:30.543Z,95939.44
2022-10-18T22:43:59.711Z,95935.41
2022-10-18T22:46:29.487Z,95929.97
2022-10-18T22:48:56.019Z,95931.25
2022-10-18T22:51:22.511Z,95929.72
2022-10-18T22:53:49.209Z,95924.53
2022-10-18T22:56:17.641Z,95927.19
2022-10-18T22:58:44.162Z,95917.19
2022-10-18T23:01:13.117Z,95920.47
2022-10-18T23:03:40.003Z,95923.47
2022-10-18T23:06:24.508Z,95910.84
2022-10-18T23:08:51.714Z,95915.84
2022-10-18T23:11:18.575Z,95914.13
2022-10-18T23:13:45.106Z,95907.38
2022-10-18T23:16:11.805Z,95902.06
2022-10-18T23:21:08.001Z,95903.56
2022-10-18T23:23:38.668Z,95910.28
2022-10-18T23:26:07.463Z,95905.41
2022-10-18T23:28:39.120Z,95904.38
2022-10-18T23:31:10.488Z,95909.25
2022-10-18T23:33:37.083Z,95907.63
2022-10-18T23:36:04.846Z,95903.59
2022-10-18T23:38:31.711Z,95898.69
2022-10-18T23:40:58.217Z,95888.16
2022-10-18T23:43:24.882Z,95893.25
2022-10-18T23:45:51.523Z,95892.91
2022-10-18T23:48:18.042Z,95890.56
2022-10-18T23:50:47.155Z,95897.31
2022-10-18T23:53:13.779Z,95903.34
2022-10-18T23:55:40.309Z,95895.34
2022-10-18T23:58:06.744Z,95897.19
